Time;durP1;ratioP1;P1;durP2;ratioP2;P2;SDS_P1;SDS_P2;PMS_P1;PMS_P2;Temp;Humidity;BMP_temperature;BMP_pressure;BME280_temperature;BME280_humidity;BME280_pressure;Samples;Min_cycle;Max_cycle;Signal;HPM_P1;HPM_P2
2022/07/06 00:02:20;;;;;;;5.65;1.58;;;14.50;99.90;;;;;;5115397;28;20087;-74
2022/07/06 00:04:48;;;;;;;4.75;1.58;;;14.50;99.90;;;;;;5096687;28;20109;-74
2022/07/06 00:07:15;;;;;;;2.75;1.50;;;14.50;99.90;;;;;;5096658;28;20138;-75
2022/07/06 00:09:42;;;;;;;3.72;1.40;;;14.50;99.90;;;;;;5130222;27;20559;-76
2022/07/06 00:12:10;;;;;;;4.32;1.15;;;14.40;99.90;;;;;;5116877;27;20086;-76
2022/07/06 00:14:37;;;;;;;7.28;1.42;;;14.40;99.90;;;;;;5134610;27;20523;-75
2022/07/06 00:17:04;;;;;;;4.60;1.52;;;14.30;99.90;;;;;;5119102;27;20048;-75
2022/07/06 00:19:31;;;;;;;6.50;1.92;;;14.30;99.90;;;;;;5095789;28;20576;-76
2022/07/06 00:21:59;;;;;;;2.95;1.48;;;14.20;99.90;;;;;;5114369;28;20126;-75
2022/07/06 00:24:27;;;;;;;4.35;1.45;;;14.20;99.90;;;;;;5114325;28;20087;-76
2022/07/06 00:26:54;;;;;;;5.60;1.52;;;14.20;99.90;;;;;;5095951;28;20512;-75
2022/07/06 00:29:20;;;;;;;5.35;1.15;;;14.10;99.90;;;;;;5114907;28;20130;-76
2022/07/06 00:31:47;;;;;;;4.03;1.27;;;14.10;99.90;;;;;;5111908;27;20085;-76
2022/07/06 00:34:14;;;;;;;3.70;1.10;;;14.10;99.90;;;;;;5117014;27;20075;-77
2022/07/06 00:36:41;;;;;;;5.10;1.30;;;14.00;99.90;;;;;;5134937;27;20047;-76
2022/07/06 00:39:09;;;;;;;5.05;1.40;;;14.00;99.90;;;;;;5116186;27;20573;-77
2022/07/06 00:41:36;;;;;;;3.67;1.25;;;14.00;99.90;;;;;;5116373;27;20086;-76
2022/07/06 00:44:08;;;;;;;4.28;1.60;;;14.00;99.90;;;;;;5134913;27;20139;-76
2022/07/06 00:46:35;;;;;;;3.13;1.30;;;14.00;99.90;;;;;;5115630;27;20089;-77
2022/07/06 00:49:02;;;;;;;5.57;1.33;;;14.00;99.90;;;;;;5134476;27;20051;-77
2022/07/06 00:51:31;;;;;;;5.72;1.42;;;14.00;99.90;;;;;;5116428;27;20553;-77
2022/07/06 00:54:00;;;;;;;4.78;1.13;;;14.00;99.90;;;;;;5134393;27;20094;-76
2022/07/06 00:56:30;;;;;;;4.18;1.42;;;14.00;99.90;;;;;;5134883;27;20054;-76
2022/07/06 00:58:57;;;;;;;3.88;1.80;;;14.00;99.90;;;;;;5116528;27;20043;-75
2022/07/06 01:01:24;;;;;;;3.40;1.50;;;14.00;99.90;;;;;;5116570;27;20123;-75
2022/07/06 01:03:51;;;;;;;4.68;1.40;;;14.00;99.90;;;;;;5113861;28;20060;-75
2022/07/06 01:06:18;;;;;;;4.93;1.60;;;14.10;99.90;;;;;;5095939;28;20044;-76
2022/07/06 01:08:44;;;;;;;6.95;1.20;;;14.10;99.90;;;;;;5113061;28;20468;-75
2022/07/06 01:11:13;;;;;;;4.47;1.35;;;14.10;99.90;;;;;;5095846;28;20071;-75
2022/07/06 01:13:42;;;;;;;4.00;1.40;;;14.10;99.90;;;;;;5095818;28;20090;-75
2022/07/06 01:16:09;;;;;;;4.60;1.65;;;14.10;99.90;;;;;;5106859;27;20506;-76
2022/07/06 01:18:36;;;;;;;4.20;1.52;;;14.10;99.90;;;;;;5116486;27;20109;-76
2022/07/06 01:21:09;;;;;;;5.25;1.70;;;14.10;99.90;;;;;;5134079;27;20047;-75
2022/07/06 01:23:41;;;;;;;2.88;1.30;;;14.10;99.90;;;;;;5114000;27;20051;-75
2022/07/06 01:26:10;;;;;;;4.55;1.67;;;14.10;99.90;;;;;;5116341;27;20054;-75
2022/07/06 01:28:37;;;;;;;7.65;2.63;;;14.10;99.90;;;;;;5115135;27;20074;-75
2022/07/06 01:31:04;;;;;;;5.50;2.00;;;14.10;99.90;;;;;;5118317;27;20047;-74
2022/07/06 01:33:31;;;;;;;3.95;1.40;;;14.10;99.90;;;;;;5095275;28;20134;-75
2022/07/06 01:35:59;;;;;;;4.32;1.40;;;14.20;99.90;;;;;;5113276;28;20120;-75
2022/07/06 01:38:27;;;;;;;4.88;1.70;;;14.20;99.90;;;;;;5095174;28;20083;-75
2022/07/06 01:40:54;;;;;;;8.00;1.70;;;14.20;99.90;;;;;;5094965;28;20094;-74
2022/07/06 01:43:20;;;;;;;6.90;1.50;;;14.20;99.90;;;;;;5094304;28;20132;-74
2022/07/06 01:45:47;;;;;;;7.28;1.10;;;14.20;99.90;;;;;;5110740;27;20082;-75
2022/07/06 01:48:14;;;;;;;4.25;1.25;;;14.20;99.90;;;;;;5115708;28;20051;-74
2022/07/06 01:50:41;;;;;;;4.93;1.65;;;14.20;99.90;;;;;;5114702;28;20126;-75
2022/07/06 01:53:08;;;;;;;3.25;1.42;;;14.20;99.90;;;;;;5134077;28;20099;-74
2022/07/06 01:55:36;;;;;;;7.18;1.75;;;14.20;99.90;;;;;;5133587;28;20047;-74
2022/07/06 01:58:03;;;;;;;3.53;1.33;;;14.10;99.90;;;;;;5114815;28;20084;-75
2022/07/06 02:00:30;;;;;;;5.65;1.52;;;14.10;99.90;;;;;;5133012;28;20499;-74
2022/07/06 02:02:56;;;;;;;3.38;1.58;;;14.10;99.90;;;;;;5133849;28;20111;-75
2022/07/06 02:05:23;;;;;;;4.15;1.90;;;14.10;99.90;;;;;;5132986;28;20482;-75
2022/07/06 02:07:50;;;;;;;3.05;1.50;;;14.10;99.90;;;;;;5133682;28;20104;-74
2022/07/06 02:10:17;;;;;;;4.47;1.75;;;14.10;99.90;;;;;;5114518;28;20047;-75
2022/07/06 02:12:45;;;;;;;10.68;1.67;;;14.10;99.90;;;;;;5115074;28;20089;-74
2022/07/06 02:15:12;;;;;;;6.50;1.48;;;14.00;99.90;;;;;;5105258;28;20044;-74
2022/07/06 02:17:39;;;;;;;4.75;1.70;;;14.00;99.90;;;;;;5094347;28;20047;-74
2022/07/06 02:20:07;;;;;;;4.75;1.50;;;14.00;99.90;;;;;;5094643;28;20071;-74
2022/07/06 02:22:34;;;;;;;4.45;1.73;;;14.00;99.90;;;;;;5113094;28;20083;-75
2022/07/06 02:25:01;;;;;;;3.53;1.50;;;14.00;99.90;;;;;;5094174;28;20056;-74
2022/07/06 02:27:27;;;;;;;13.77;1.58;;;14.00;99.90;;;;;;5112389;28;20134;-75
2022/07/06 02:29:56;;;;;;;4.45;1.33;;;14.00;99.90;;;;;;5122984;28;20092;-75
2022/07/06 02:32:22;;;;;;;6.25;1.98;;;13.90;99.90;;;;;;5114508;28;20471;-75
2022/07/06 02:34:49;;;;;;;5.82;1.90;;;13.90;99.90;;;;;;5133311;28;20074;-75
2022/07/06 02:37:16;;;;;;;6.18;1.58;;;13.80;99.90;;;;;;5133278;28;20384;-75
2022/07/06 02:39:43;;;;;;;6.72;1.95;;;13.70;99.90;;;;;;5114296;28;20113;-75
2022/07/06 02:42:10;;;;;;;5.07;1.40;;;13.60;99.90;;;;;;5133544;28;20054;-75
2022/07/06 02:44:37;;;;;;;6.25;1.88;;;13.50;99.90;;;;;;5122924;28;20051;-74
2022/07/06 02:47:05;;;;;;;5.90;1.77;;;13.40;99.90;;;;;;5096529;28;20479;-75
2022/07/06 02:49:32;;;;;;;7.45;1.63;;;13.30;99.90;;;;;;5098733;28;20100;-73
2022/07/06 02:51:59;;;;;;;6.55;1.55;;;13.30;99.90;;;;;;5126156;27;20126;-75
2022/07/06 02:54:25;;;;;;;6.70;2.13;;;13.20;99.90;;;;;;5136162;27;20103;-74
2022/07/06 02:56:53;;;;;;;6.40;1.45;;;13.10;99.90;;;;;;5136810;27;20086;-75
2022/07/06 02:59:20;;;;;;;5.97;1.67;;;13.10;99.90;;;;;;5136409;27;20368;-75
2022/07/06 03:01:47;;;;;;;4.57;1.40;;;13.00;99.90;;;;;;5136366;27;20421;-76
2022/07/06 03:04:15;;;;;;;6.10;1.48;;;13.00;99.90;;;;;;5137337;27;20479;-75
2022/07/06 03:06:42;;;;;;;4.57;1.77;;;13.00;99.90;;;;;;5136186;27;20083;-75
2022/07/06 03:09:09;;;;;;;4.57;1.60;;;12.90;99.90;;;;;;5136617;27;20058;-73
2022/07/06 03:11:36;;;;;;;6.78;1.88;;;12.80;99.90;;;;;;5136155;27;20659;-74
2022/07/06 03:14:03;;;;;;;5.97;2.08;;;12.80;99.90;;;;;;5111797;28;20049;-74
2022/07/06 03:16:30;;;;;;;11.20;1.92;;;12.80;99.90;;;;;;5114938;28;20552;-74
2022/07/06 03:18:57;;;;;;;5.20;2.38;;;12.80;99.90;;;;;;5097575;28;20043;-75
2022/07/06 03:21:26;;;;;;;3.10;1.42;;;12.70;99.90;;;;;;5115404;28;20082;-76
2022/07/06 03:23:53;;;;;;;3.75;1.55;;;12.60;99.90;;;;;;5115983;28;20123;-75
2022/07/06 03:26:19;;;;;;;3.65;1.70;;;12.50;99.90;;;;;;5098020;28;20083;-75
2022/07/06 03:28:46;;;;;;;5.25;1.80;;;12.50;99.90;;;;;;5103005;27;20507;-74
2022/07/06 03:31:13;;;;;;;5.15;2.03;;;12.50;99.90;;;;;;5118067;27;20123;-75
2022/07/06 03:33:40;;;;;;;5.82;2.10;;;12.40;99.90;;;;;;5135943;27;20043;-75
2022/07/06 03:36:07;;;;;;;5.88;1.90;;;12.40;99.90;;;;;;5117302;27;20086;-75
2022/07/06 03:38:35;;;;;;;6.47;1.95;;;12.40;99.90;;;;;;5136077;27;20498;-76
2022/07/06 03:41:02;;;;;;;7.68;1.77;;;12.30;99.90;;;;;;5136415;27;20092;-75
2022/07/06 03:43:29;;;;;;;7.07;1.95;;;12.30;99.90;;;;;;5134994;27;20078;-75
2022/07/06 03:45:56;;;;;;;8.10;2.22;;;12.30;99.90;;;;;;5117478;27;20120;-75
2022/07/06 03:48:23;;;;;;;7.47;1.77;;;12.30;99.90;;;;;;5117720;27;20556;-75
2022/07/06 03:50:49;;;;;;;8.82;1.83;;;12.30;99.90;;;;;;5123126;27;20079;-74
2022/07/06 03:53:16;;;;;;;3.60;1.65;;;12.40;99.90;;;;;;5125714;27;20128;-77
2022/07/06 03:56:27;;;;;;;4.60;1.50;;;12.40;99.90;;;;;;5098980;28;20047;-77
2022/07/06 03:58:33;;;;;;;7.53;1.75;;;12.50;99.90;;;;;;5123834;27;20039;-76
2022/07/06 04:00:59;;;;;;;4.47;1.80;;;12.50;99.90;;;;;;5105241;28;20410;-76
2022/07/06 04:03:26;;;;;;;4.50;1.70;;;12.70;99.90;;;;;;5113732;27;20115;-76
2022/07/06 04:05:53;;;;;;;5.05;1.65;;;12.60;99.90;;;;;;5112478;27;20082;-76
2022/07/06 04:08:20;;;;;;;7.38;1.63;;;12.60;99.90;;;;;;5095954;28;20176;-76
2022/07/06 04:10:48;;;;;;;3.88;1.40;;;12.70;99.90;;;;;;5113497;27;20044;-76
2022/07/06 04:13:15;;;;;;;5.60;2.03;;;12.80;99.90;;;;;;5120867;27;20115;-76
2022/07/06 04:15:42;;;;;;;2.53;1.25;;;12.80;99.90;;;;;;5132492;27;20082;-76
2022/07/06 04:18:09;;;;;;;4.82;1.67;;;12.90;99.90;;;;;;5126904;27;20523;-76
2022/07/06 04:20:36;;;;;;;4.00;1.75;;;13.20;99.90;;;;;;5133347;27;20066;-76
2022/07/06 04:23:03;;;;;;;6.88;1.85;;;13.30;99.90;;;;;;5131185;27;20050;-75
2022/07/06 04:25:29;;;;;;;4.70;1.27;;;13.60;99.90;;;;;;5113956;27;20074;-76
2022/07/06 04:27:58;;;;;;;5.93;1.50;;;13.70;99.90;;;;;;5108947;27;20051;-77
2022/07/06 04:30:25;;;;;;;4.07;1.42;;;13.80;99.90;;;;;;5130301;27;20467;-77
2022/07/06 04:32:51;;;;;;;8.30;1.85;;;13.90;99.90;;;;;;5126447;27;20403;-75
2022/07/06 04:35:18;;;;;;;3.38;1.20;;;14.00;99.90;;;;;;5125791;27;20047;-76
2022/07/06 04:37:46;;;;;;;5.70;1.08;;;14.10;99.90;;;;;;5128142;27;20086;-74
2022/07/06 04:40:13;;;;;;;3.42;1.25;;;14.20;99.90;;;;;;5112146;27;20043;-75
2022/07/06 04:42:40;;;;;;;8.20;3.42;;;14.20;99.90;;;;;;5118378;27;20059;-75
2022/07/06 04:45:10;;;;;;;10.25;2.30;;;14.10;99.90;;;;;;5098827;27;20101;-76
2022/07/06 04:47:37;;;;;;;4.07;2.15;;;14.10;99.90;;;;;;5115128;27;20104;-76
2022/07/06 04:50:04;;;;;;;4.82;1.25;;;14.10;99.90;;;;;;5129149;27;20082;-76
2022/07/06 04:52:31;;;;;;;3.40;1.45;;;14.10;99.90;;;;;;5122955;27;20563;-74
2022/07/06 04:54:58;;;;;;;7.00;1.20;;;14.10;99.90;;;;;;5112692;27;20093;-77
2022/07/06 04:57:25;;;;;;;4.05;1.25;;;14.00;99.90;;;;;;5095423;28;20403;-76
2022/07/06 04:59:52;;;;;;;3.85;0.90;;;14.10;99.90;;;;;;5112661;27;20051;-76
2022/07/06 05:02:21;;;;;;;3.50;1.00;;;14.20;99.90;;;;;;5113757;27;20054;-76
2022/07/06 05:04:47;;;;;;;8.45;1.40;;;14.20;99.90;;;;;;5100689;27;20058;-73
2022/07/06 05:07:15;;;;;;;9.25;1.30;;;14.30;99.90;;;;;;5111130;27;20098;-72
2022/07/06 05:09:42;;;;;;;5.22;1.10;;;14.40;99.90;;;;;;5112057;27;20096;-73
2022/07/06 05:12:10;;;;;;;7.45;1.83;;;14.50;99.90;;;;;;5096827;27;20075;-76
2022/07/06 05:14:37;;;;;;;11.68;1.52;;;14.60;99.90;;;;;;5101186;27;20052;-76
2022/07/06 05:17:04;;;;;;;5.50;1.50;;;14.70;99.90;;;;;;5130740;27;20051;-77
2022/07/06 05:19:32;;;;;;;6.53;1.50;;;14.90;99.90;;;;;;5110896;27;20043;-77
2022/07/06 05:21:59;;;;;;;3.75;1.15;;;15.10;99.90;;;;;;5110177;27;20130;-79
2022/07/06 05:24:26;;;;;;;7.00;1.58;;;15.10;99.90;;;;;;5130214;27;20087;-77
2022/07/06 05:26:53;;;;;;;6.57;2.00;;;15.00;99.90;;;;;;5112025;27;20051;-77
2022/07/06 05:29:20;;;;;;;9.02;1.58;;;15.00;99.90;;;;;;5130117;27;20066;-75
2022/07/06 05:31:46;;;;;;;4.80;1.33;;;14.90;99.90;;;;;;5113585;27;20119;-75
2022/07/06 05:34:13;;;;;;;4.20;1.15;;;14.90;99.90;;;;;;5127411;27;20047;-75
2022/07/06 05:36:41;;;;;;;4.50;1.15;;;14.90;99.90;;;;;;5111519;28;20086;-78
2022/07/06 05:39:08;;;;;;;5.85;1.20;;;14.90;99.90;;;;;;5127424;27;20525;-77
2022/07/06 05:41:35;;;;;;;9.43;2.22;;;14.90;99.90;;;;;;5109365;28;20120;-76
2022/07/06 05:44:02;;;;;;;3.47;1.05;;;15.30;99.90;;;;;;5107619;28;20119;-77
2022/07/06 05:46:29;;;;;;;4.30;1.40;;;15.30;99.90;;;;;;5111100;28;20395;-77
2022/07/06 05:51:41;;;;;;;4.07;1.30;;;15.60;99.90;;;;;;5130331;28;20054;-76
2022/07/06 05:54:08;;;;;;;6.63;1.25;;;15.70;99.90;;;;;;5129098;28;20074;-77
2022/07/06 05:56:35;;;;;;;4.28;1.17;;;15.70;99.90;;;;;;5125926;28;20474;-75
2022/07/06 05:59:01;;;;;;;5.63;1.35;;;15.80;99.90;;;;;;5113048;28;20124;-75
2022/07/06 06:01:28;;;;;;;4.57;1.20;;;15.90;99.90;;;;;;5112424;28;20462;-74
2022/07/06 06:03:55;;;;;;;2.42;1.33;;;15.90;99.90;;;;;;5110614;28;20135;-76
2022/07/06 06:06:22;;;;;;;4.57;1.23;;;16.00;99.90;;;;;;5132519;28;20521;-74
2022/07/06 06:08:50;;;;;;;3.53;1.08;;;15.90;99.90;;;;;;5126942;28;20082;-75
2022/07/06 06:11:17;;;;;;;3.78;1.13;;;16.00;99.90;;;;;;5115264;28;20088;-75
2022/07/06 06:13:44;;;;;;;3.17;1.10;;;15.80;99.90;;;;;;5117214;28;20099;-75
2022/07/06 06:16:11;;;;;;;5.25;1.23;;;15.80;99.90;;;;;;5139916;28;20076;-74
2022/07/06 06:18:38;;;;;;;4.90;1.00;;;15.90;99.90;;;;;;5113301;28;20044;-75
2022/07/06 06:21:04;;;;;;;4.47;1.17;;;15.90;99.90;;;;;;5129946;27;20047;-76
2022/07/06 06:23:31;;;;;;;2.78;1.00;;;15.80;99.90;;;;;;5146885;27;20099;-73
2022/07/06 06:25:59;;;;;;;2.95;1.25;;;15.80;99.90;;;;;;5123731;27;20051;-77
2022/07/06 06:28:26;;;;;;;3.63;1.00;;;15.80;99.90;;;;;;5130149;27;20128;-77
2022/07/06 06:30:53;;;;;;;5.70;1.30;;;15.90;99.90;;;;;;5133804;27;20047;-73
2022/07/06 06:33:22;;;;;;;6.38;1.77;;;15.80;99.90;;;;;;5116550;27;20530;-74
2022/07/06 06:35:50;;;;;;;4.32;1.40;;;15.80;99.90;;;;;;5117919;27;20116;-74
2022/07/06 06:38:18;;;;;;;6.40;1.50;;;15.80;99.90;;;;;;5115391;27;20075;-75
2022/07/06 06:40:45;;;;;;;5.70;1.67;;;15.70;99.90;;;;;;5131075;27;20086;-76
2022/07/06 06:43:14;;;;;;;4.60;1.25;;;15.80;99.90;;;;;;5115441;27;20406;-74
2022/07/06 06:45:41;;;;;;;5.53;1.55;;;15.80;99.90;;;;;;5132234;27;20051;-76
2022/07/06 06:48:08;;;;;;;4.45;1.25;;;15.90;99.90;;;;;;5113698;27;20049;-76
2022/07/06 06:50:35;;;;;;;7.15;1.45;;;16.00;99.90;;;;;;5116897;27;20055;-76
2022/07/06 06:53:03;;;;;;;2.95;1.10;;;16.10;99.90;;;;;;5117007;27;20095;-75
2022/07/06 06:55:30;;;;;;;5.20;1.80;;;16.10;99.90;;;;;;5114984;27;20093;-75
2022/07/06 06:57:57;;;;;;;16.27;1.95;;;16.40;99.90;;;;;;5116935;27;20047;-73
2022/07/06 07:00:25;;;;;;;3.78;1.15;;;16.70;99.90;;;;;;5131145;27;20050;-75
2022/07/06 07:02:52;;;;;;;4.50;1.40;;;16.90;99.90;;;;;;5132130;27;20074;-73
2022/07/06 07:05:19;;;;;;;3.17;1.00;;;17.20;99.90;;;;;;5116752;27;20051;-75
2022/07/06 07:07:46;;;;;;;7.15;1.48;;;17.40;99.90;;;;;;5113977;27;20051;-75
2022/07/06 07:10:13;;;;;;;6.97;1.30;;;17.50;99.90;;;;;;5114918;27;20051;-75
2022/07/06 07:12:46;;;;;;;4.45;0.98;;;17.60;99.90;;;;;;5113381;27;20092;-75
2022/07/06 07:15:13;;;;;;;5.55;1.20;;;17.40;99.90;;;;;;5129169;27;20043;-75
2022/07/06 07:17:42;;;;;;;4.50;0.90;;;17.20;99.90;;;;;;5135137;27;20047;-75
2022/07/06 07:20:10;;;;;;;4.45;1.10;;;17.10;99.90;;;;;;5133169;27;20047;-76
2022/07/06 07:22:37;;;;;;;3.70;1.30;;;17.10;99.90;;;;;;5129486;27;20108;-75
2022/07/06 07:25:05;;;;;;;3.80;1.35;;;17.10;99.90;;;;;;5113902;27;20043;-75
2022/07/06 07:27:32;;;;;;;5.10;1.30;;;17.20;99.90;;;;;;5115987;27;20495;-77
2022/07/06 07:29:58;;;;;;;4.95;1.30;;;17.90;99.90;;;;;;5097626;28;20056;-76
2022/07/06 07:32:25;;;;;;;4.80;2.03;;;19.00;99.90;;;;;;5097302;28;20039;-77
2022/07/06 07:34:53;;;;;;;3.38;0.98;;;19.90;99.90;;;;;;5097304;28;20116;-76
2022/07/06 07:37:20;;;;;;;4.43;1.05;;;20.70;99.90;;;;;;5100498;27;20491;-76
2022/07/06 07:39:47;;;;;;;4.50;1.02;;;21.60;99.90;;;;;;5130984;27;20051;-77
2022/07/06 07:42:14;;;;;;;3.67;1.20;;;22.30;99.90;;;;;;5135480;27;20050;-76
2022/07/06 07:44:41;;;;;;;3.65;0.93;;;22.90;99.90;;;;;;5134717;27;20562;-75
2022/07/06 07:47:08;;;;;;;2.65;0.75;;;23.30;99.90;;;;;;5135927;27;20495;-76
2022/07/06 07:49:35;;;;;;;2.47;0.80;;;23.50;99.70;;;;;;5111966;27;20108;-76
2022/07/06 07:52:04;;;;;;;2.85;1.02;;;23.60;98.70;;;;;;5117503;27;20051;-75
2022/07/06 07:54:30;;;;;;;3.15;0.73;;;24.10;97.80;;;;;;5117953;27;20464;-77
2022/07/06 07:56:57;;;;;;;3.13;0.80;;;24.30;95.90;;;;;;5116778;27;20046;-76
2022/07/06 07:59:24;;;;;;;3.10;0.60;;;24.50;94.70;;;;;;5102523;28;20552;-76
2022/07/06 08:01:51;;;;;;;2.83;1.10;;;24.80;93.50;;;;;;5115665;28;20048;-76
2022/07/06 08:04:18;;;;;;;2.25;0.63;;;25.00;93.00;;;;;;5112328;27;20051;-76
2022/07/06 08:06:45;;;;;;;2.50;0.70;;;24.70;92.20;;;;;;5117737;27;20051;-77
2022/07/06 08:09:14;;;;;;;2.83;0.75;;;24.30;91.40;;;;;;5116467;27;20051;-75
2022/07/06 08:11:40;;;;;;;1.50;0.60;;;24.20;91.10;;;;;;5131032;27;20088;-76
2022/07/06 08:14:08;;;;;;;2.67;0.75;;;24.00;91.10;;;;;;5135965;27;20047;-76
2022/07/06 08:16:35;;;;;;;2.72;0.80;;;23.40;91.00;;;;;;5116771;27;20047;-76
2022/07/06 08:19:02;;;;;;;3.10;0.80;;;23.20;91.30;;;;;;5127916;27;20043;-75
2022/07/06 08:21:29;;;;;;;4.82;0.65;;;23.10;91.00;;;;;;5115378;28;20048;-76
2022/07/06 08:23:56;;;;;;;4.32;0.73;;;23.40;91.00;;;;;;5114613;28;20559;-76
2022/07/06 08:26:24;;;;;;;1.73;0.55;;;23.80;90.70;;;;;;5097384;28;20100;-76
2022/07/06 08:28:52;;;;;;;1.17;0.47;;;24.30;90.30;;;;;;5096909;28;20055;-75
2022/07/06 08:31:19;;;;;;;11.23;6.13;;;24.80;89.70;;;;;;5113912;28;20487;-76
2022/07/06 08:33:46;;;;;;;2.58;0.75;;;25.10;88.40;;;;;;5096704;28;20097;-76
2022/07/06 08:36:13;;;;;;;3.35;0.50;;;25.30;87.10;;;;;;5112561;27;20055;-76
2022/07/06 08:38:40;;;;;;;1.27;0.40;;;25.30;85.20;;;;;;5132705;27;20414;-76
2022/07/06 08:41:08;;;;;;;2.90;0.77;;;25.20;84.50;;;;;;5133380;27;20116;-76
2022/07/06 08:43:36;;;;;;;2.28;0.75;;;25.10;84.30;;;;;;5115704;27;20059;-76
2022/07/06 08:46:04;;;;;;;2.33;0.50;;;25.30;83.40;;;;;;5136825;27;20047;-76
2022/07/06 08:48:36;;;;;;;1.67;0.40;;;25.40;83.70;;;;;;5142515;27;20039;-76
2022/07/06 08:51:03;;;;;;;2.28;0.70;;;25.60;81.60;;;;;;5122859;27;20051;-75
2022/07/06 08:53:30;;;;;;;2.65;0.50;;;25.60;83.00;;;;;;5119165;27;20042;-76
2022/07/06 08:55:57;;;;;;;3.75;0.98;;;25.60;83.00;;;;;;5116553;27;20054;-75
2022/07/06 08:58:26;;;;;;;1.52;0.65;;;25.30;82.30;;;;;;5115865;27;20491;-76
2022/07/06 09:00:55;;;;;;;4.80;0.80;;;24.70;82.10;;;;;;5113971;27;20059;-76
2022/07/06 09:03:22;;;;;;;3.28;0.70;;;24.10;82.90;;;;;;5096428;28;20399;-76
2022/07/06 09:05:50;;;;;;;2.08;0.70;;;23.40;84.60;;;;;;5132657;27;20055;-76
2022/07/06 09:08:18;;;;;;;3.90;0.60;;;22.80;86.80;;;;;;5134763;27;20047;-76
2022/07/06 09:10:45;;;;;;;2.80;0.80;;;22.20;87.80;;;;;;5116864;27;20047;-76
2022/07/06 09:13:12;;;;;;;4.07;0.93;;;21.90;88.70;;;;;;5095066;28;20039;-76
2022/07/06 09:15:39;;;;;;;2.13;0.60;;;21.60;89.80;;;;;;5095820;28;20138;-77
2022/07/06 09:18:08;;;;;;;3.97;0.90;;;22.00;90.30;;;;;;5130231;27;20126;-77
2022/07/06 09:20:35;;;;;;;4.72;1.20;;;22.50;89.60;;;;;;5112745;27;20047;-76
2022/07/06 09:23:05;;;;;;;1.88;0.60;;;22.80;89.00;;;;;;5096001;28;20446;-77
2022/07/06 09:25:33;;;;;;;3.80;1.00;;;23.80;88.80;;;;;;5096624;27;20050;-76
2022/07/06 09:28:00;;;;;;;4.50;0.98;;;23.90;87.90;;;;;;5098053;28;20469;-77
2022/07/06 09:30:28;;;;;;;6.40;0.90;;;24.10;87.10;;;;;;5131356;27;20043;-75
2022/07/06 09:32:56;;;;;;;5.43;0.93;;;23.90;87.00;;;;;;5134150;27;20092;-75
2022/07/06 09:35:26;;;;;;;6.32;1.13;;;23.50;86.70;;;;;;5114257;27;20448;-75
2022/07/06 09:38:04;;;;;;;6.10;1.42;;;23.00;85.80;;;;;;5110270;27;20050;-75
2022/07/06 09:40:32;;;;;;;2.47;0.70;;;23.70;87.30;;;;;;5112577;27;20502;-75
2022/07/06 09:43:10;;;;;;;3.83;1.17;;;24.10;85.50;;;;;;5111276;27;20051;-73
2022/07/06 09:45:38;;;;;;;4.00;0.80;;;23.90;84.40;;;;;;5108552;28;20495;-73
2022/07/06 09:48:11;;;;;;;6.78;1.00;;;23.20;87.20;;;;;;5108806;28;20052;-73
2022/07/06 09:50:44;;;;;;;4.57;1.15;;;22.80;88.10;;;;;;5112022;28;20043;-73
2022/07/06 09:53:11;;;;;;;13.60;1.45;;;22.30;88.50;;;;;;5128531;28;20050;-73
2022/07/06 09:55:38;;;;;;;3.08;0.80;;;22.40;89.40;;;;;;5116478;27;20112;-73
2022/07/06 09:58:06;;;;;;;4.85;0.88;;;23.00;89.40;;;;;;5134027;27;20039;-74
2022/07/06 10:00:32;;;;;;;12.38;1.60;;;23.10;88.50;;;;;;5134292;27;20055;-75
2022/07/06 10:03:00;;;;;;;15.20;3.00;;;23.20;88.40;;;;;;5139133;27;20047;-74
2022/07/06 10:05:29;;;;;;;8.48;1.30;;;23.00;88.60;;;;;;5134218;27;20728;-74
2022/07/06 10:08:00;;;;;;;11.43;1.30;;;22.90;88.60;;;;;;5131651;27;20055;-74
2022/07/06 10:10:28;;;;;;;6.80;1.05;;;22.60;88.40;;;;;;5133763;27;20504;-74
2022/07/06 10:12:57;;;;;;;4.80;1.00;;;22.60;88.70;;;;;;5120506;27;20043;-75
2022/07/06 10:15:26;;;;;;;4.32;0.80;;;22.10;88.90;;;;;;5133882;27;20134;-76
2022/07/06 10:17:54;;;;;;;3.40;1.20;;;22.10;89.50;;;;;;5137836;27;20049;-74
2022/07/06 10:20:22;;;;;;;4.30;1.13;;;22.40;89.50;;;;;;5118051;27;20104;-74
2022/07/06 10:22:49;;;;;;;7.57;0.90;;;23.30;88.70;;;;;;5131371;27;20111;-74
2022/07/06 10:25:19;;;;;;;3.38;0.80;;;23.90;86.50;;;;;;5132384;27;20047;-75
2022/07/06 10:27:47;;;;;;;2.88;0.90;;;24.60;85.00;;;;;;5132630;27;20043;-75
2022/07/06 10:30:15;;;;;;;3.10;0.90;;;24.80;84.50;;;;;;5133474;27;20140;-77
2022/07/06 10:32:46;;;;;;;5.80;1.10;;;25.00;83.30;;;;;;5119372;27;20073;-75
2022/07/06 10:35:13;;;;;;;5.35;1.05;;;24.90;81.80;;;;;;5118461;27;20116;-75
2022/07/06 10:37:41;;;;;;;3.72;0.98;;;25.40;81.20;;;;;;5111763;27;20471;-75
2022/07/06 10:42:59;;;;;;;2.50;0.90;;;26.30;80.50;;;;;;5131901;27;20047;-75
2022/07/06 10:45:52;;;;;;;2.30;0.75;;;26.30;79.10;;;;;;5122699;27;20100;-75
2022/07/06 10:48:22;;;;;;;3.92;1.10;;;26.60;76.40;;;;;;5142308;27;20047;-74
2022/07/06 10:50:51;;;;;;;2.30;0.93;;;26.60;77.80;;;;;;5139146;27;20043;-75
2022/07/06 10:53:21;;;;;;;2.50;0.95;;;26.40;76.90;;;;;;5133706;27;20039;-76
2022/07/06 10:55:51;;;;;;;3.03;0.80;;;25.70;78.40;;;;;;5136431;27;20135;-76
2022/07/06 10:58:41;;;;;;;4.20;1.10;;;24.90;78.20;;;;;;5116254;27;20055;-76
2022/07/06 11:01:09;;;;;;;4.78;0.93;;;24.40;77.60;;;;;;5133800;27;20050;-75
2022/07/06 11:03:41;;;;;;;4.20;1.20;;;24.80;78.90;;;;;;5137728;27;20039;-75
2022/07/06 11:06:12;;;;;;;4.13;0.90;;;25.20;77.90;;;;;;5120735;27;20055;-77
2022/07/06 11:08:50;;;;;;;3.00;1.15;;;25.30;77.40;;;;;;5122381;27;20072;-78
2022/07/06 11:11:19;;;;;;;3.83;0.73;;;25.60;75.80;;;;;;5135502;27;20055;-71
2022/07/06 11:13:53;;;;;;;3.28;0.98;;;25.90;76.80;;;;;;5117002;27;20535;-75
2022/07/06 11:16:23;;;;;;;3.80;0.70;;;25.20;75.20;;;;;;5138780;27;20047;-76
2022/07/06 11:18:51;;;;;;;2.90;0.70;;;24.50;76.90;;;;;;5119849;27;20453;-75
2022/07/06 11:21:23;;;;;;;4.22;0.85;;;23.90;78.20;;;;;;5119578;27;20054;-74
2022/07/06 11:23:51;;;;;;;7.00;0.95;;;24.20;78.90;;;;;;5119434;27;20092;-76
2022/07/06 11:26:18;;;;;;;2.33;0.80;;;24.80;78.50;;;;;;5121786;27;20050;-75
2022/07/06 11:28:48;;;;;;;3.65;0.70;;;24.90;77.90;;;;;;5142913;27;20047;-75
2022/07/06 11:31:17;;;;;;;4.13;0.80;;;25.50;76.80;;;;;;5124232;27;20048;-75
2022/07/06 11:33:46;;;;;;;10.80;0.90;;;26.10;75.80;;;;;;5104034;28;20051;-75
2022/07/06 11:36:18;;;;;;;5.57;1.15;;;25.90;75.10;;;;;;5101274;28;20069;-75
2022/07/06 11:38:46;;;;;;;5.35;1.00;;;26.10;73.10;;;;;;5115835;28;20066;-75
2022/07/06 11:41:14;;;;;;;22.02;2.15;;;26.70;73.60;;;;;;5096667;28;20568;-75
2022/07/06 11:43:44;;;;;;;3.42;1.13;;;27.40;73.60;;;;;;5097630;28;20054;-76
2022/07/06 11:46:24;;;;;;;2.95;0.60;;;27.10;71.90;;;;;;5106661;27;20175;-75
2022/07/06 11:48:52;;;;;;;1.80;0.70;;;26.60;69.60;;;;;;5117732;27;20550;-75
2022/07/06 11:51:19;;;;;;;2.90;1.02;;;25.90;71.90;;;;;;5117152;27;20051;-75
2022/07/06 11:53:47;;;;;;;12.80;1.63;;;25.40;72.80;;;;;;5136483;27;20043;-76
2022/07/06 11:56:16;;;;;;;2.60;0.80;;;25.90;73.90;;;;;;5117196;27;20099;-76
2022/07/06 11:58:46;;;;;;;5.43;1.13;;;25.60;72.70;;;;;;5118321;27;20134;-76
2022/07/06 12:01:14;;;;;;;1.90;0.70;;;25.00;73.30;;;;;;5135262;27;20043;-75
2022/07/06 12:03:42;;;;;;;5.15;0.77;;;25.20;73.50;;;;;;5136773;27;20047;-74
2022/07/06 12:06:15;;;;;;;7.00;0.88;;;25.20;73.50;;;;;;5136045;27;20104;-76
2022/07/06 12:08:44;;;;;;;6.63;1.10;;;25.10;73.60;;;;;;5135421;27;20086;-75
2022/07/06 12:11:11;;;;;;;5.07;0.80;;;25.00;74.50;;;;;;5135705;27;20055;-75
2022/07/06 12:13:42;;;;;;;3.72;0.73;;;25.10;74.20;;;;;;5135977;27;20082;-75
2022/07/06 12:16:13;;;;;;;4.55;0.88;;;25.00;73.90;;;;;;5115774;27;20054;-75
2022/07/06 12:18:40;;;;;;;2.60;0.70;;;25.00;74.20;;;;;;5096682;28;20384;-76
2022/07/06 12:21:10;;;;;;;7.13;1.20;;;24.70;74.50;;;;;;5114739;28;20490;-75
2022/07/06 12:23:45;;;;;;;5.40;0.98;;;24.70;74.70;;;;;;5114183;28;20052;-75
2022/07/06 12:26:14;;;;;;;6.18;1.00;;;24.20;75.40;;;;;;5115091;28;20051;-76
2022/07/06 12:28:41;;;;;;;4.22;0.90;;;24.20;75.90;;;;;;5096651;27;20479;-75
2022/07/06 12:31:08;;;;;;;5.85;1.00;;;24.50;75.80;;;;;;5113858;28;20055;-75
2022/07/06 12:33:36;;;;;;;2.38;0.80;;;24.90;75.70;;;;;;5096825;28;20040;-76
2022/07/06 12:36:15;;;;;;;2.67;0.80;;;25.10;74.10;;;;;;5114504;28;20051;-75
2022/07/06 12:38:47;;;;;;;1.85;0.68;;;25.80;73.40;;;;;;5119995;27;20100;-76
2022/07/06 12:41:32;;;;;;;3.85;0.75;;;26.40;72.40;;;;;;5116857;27;20115;-76
2022/07/06 12:44:08;;;;;;;6.53;1.23;;;26.30;72.40;;;;;;5115856;27;20483;-76
2022/07/06 12:46:36;;;;;;;6.18;1.08;;;26.00;72.90;;;;;;5134878;27;20507;-76
2022/07/06 12:49:12;;;;;;;5.07;1.13;;;25.40;73.10;;;;;;5100683;28;20055;-75
2022/07/06 12:51:57;;;;;;;6.63;0.77;;;24.70;73.80;;;;;;5113544;28;20116;-75
2022/07/06 12:54:25;;;;;;;5.93;0.93;;;24.50;76.00;;;;;;5114503;28;20054;-76
2022/07/06 12:57:14;;;;;;;3.40;0.70;;;24.10;76.10;;;;;;5096817;28;20124;-76